sensor_id;sensor_type;location;lat;lon;timestamp;P1;durP1;ratioP1;P2;durP2;ratioP2
69334;SDS011;56477;52.742;15.242;2023-04-24T00:00:21;9.95;;;5.57;;
69334;SDS011;56477;52.742;15.242;2023-04-24T00:03:07;9.95;;;5.40;;
69334;SDS011;56477;52.742;15.242;2023-04-24T00:05:33;9.53;;;5.67;;
69334;SDS011;56477;52.742;15.242;2023-04-24T00:07:59;10.73;;;5.30;;
69334;SDS011;56477;52.742;15.242;2023-04-24T00:10:25;10.05;;;6.20;;
69334;SDS011;56477;52.742;15.242;2023-04-24T00:12:51;9.35;;;5.70;;
69334;SDS011;56477;52.742;15.242;2023-04-24T00:15:17;10.13;;;5.83;;
69334;SDS011;56477;52.742;15.242;2023-04-24T00:17:43;9.82;;;5.82;;
69334;SDS011;56477;52.742;15.242;2023-04-24T00:20:09;9.95;;;6.07;;
69334;SDS011;56477;52.742;15.242;2023-04-24T00:22:36;10.73;;;6.07;;
69334;SDS011;56477;52.742;15.242;2023-04-24T00:25:02;9.27;;;5.87;;
69334;SDS011;56477;52.742;15.242;2023-04-24T00:27:28;11.15;;;6.28;;
69334;SDS011;56477;52.742;15.242;2023-04-24T00:29:55;9.77;;;5.80;;
69334;SDS011;56477;52.742;15.242;2023-04-24T00:32:21;10.68;;;5.90;;
69334;SDS011;56477;52.742;15.242;2023-04-24T00:34:47;9.37;;;5.63;;
69334;SDS011;56477;52.742;15.242;2023-04-24T00:37:13;10.90;;;6.22;;
69334;SDS011;56477;52.742;15.242;2023-04-24T00:39:39;10.52;;;6.50;;
69334;SDS011;56477;52.742;15.242;2023-04-24T00:42:05;10.52;;;6.32;;
69334;SDS011;56477;52.742;15.242;2023-04-24T00:44:32;11.20;;;6.80;;
69334;SDS011;56477;52.742;15.242;2023-04-24T00:47:00;12.13;;;6.50;;
69334;SDS011;56477;52.742;15.242;2023-04-24T00:49:27;12.07;;;7.07;;
69334;SDS011;56477;52.742;15.242;2023-04-24T00:51:54;10.95;;;6.78;;
69334;SDS011;56477;52.742;15.242;2023-04-24T00:54:20;12.05;;;7.25;;
69334;SDS011;56477;52.742;15.242;2023-04-24T00:56:46;11.47;;;7.00;;
69334;SDS011;56477;52.742;15.242;2023-04-24T00:59:12;11.93;;;7.45;;
69334;SDS011;56477;52.742;15.242;2023-04-24T01:01:39;12.63;;;7.88;;
69334;SDS011;56477;52.742;15.242;2023-04-24T01:04:08;13.15;;;7.60;;
69334;SDS011;56477;52.742;15.242;2023-04-24T01:06:35;13.20;;;7.68;;
69334;SDS011;56477;52.742;15.242;2023-04-24T01:09:04;12.00;;;7.77;;
69334;SDS011;56477;52.742;15.242;2023-04-24T01:11:30;12.25;;;7.35;;
69334;SDS011;56477;52.742;15.242;2023-04-24T01:13:56;15.70;;;8.35;;
69334;SDS011;56477;52.742;15.242;2023-04-24T01:16:24;13.68;;;8.15;;
69334;SDS011;56477;52.742;15.242;2023-04-24T01:18:50;13.73;;;8.53;;
69334;SDS011;56477;52.742;15.242;2023-04-24T01:21:16;14.68;;;8.82;;
69334;SDS011;56477;52.742;15.242;2023-04-24T01:23:44;14.38;;;8.93;;
69334;SDS011;56477;52.742;15.242;2023-04-24T01:26:11;14.70;;;8.50;;
69334;SDS011;56477;52.742;15.242;2023-04-24T01:28:38;14.75;;;8.90;;
69334;SDS011;56477;52.742;15.242;2023-04-24T01:31:05;18.07;;;9.63;;
69334;SDS011;56477;52.742;15.242;2023-04-24T01:33:31;16.48;;;8.85;;
69334;SDS011;56477;52.742;15.242;2023-04-24T01:35:57;17.25;;;9.98;;
69334;SDS011;56477;52.742;15.242;2023-04-24T01:38:23;17.17;;;9.63;;
69334;SDS011;56477;52.742;15.242;2023-04-24T01:40:49;16.93;;;9.57;;
69334;SDS011;56477;52.742;15.242;2023-04-24T01:43:16;17.50;;;9.48;;
69334;SDS011;56477;52.742;15.242;2023-04-24T01:45:42;19.17;;;10.80;;
69334;SDS011;56477;52.742;15.242;2023-04-24T01:48:08;17.55;;;10.55;;
69334;SDS011;56477;52.742;15.242;2023-04-24T01:50:34;18.80;;;10.00;;
69334;SDS011;56477;52.742;15.242;2023-04-24T01:53:00;19.73;;;10.90;;
69334;SDS011;56477;52.742;15.242;2023-04-24T01:55:27;17.52;;;10.18;;
69334;SDS011;56477;52.742;15.242;2023-04-24T01:57:52;19.58;;;10.82;;
69334;SDS011;56477;52.742;15.242;2023-04-24T02:00:21;21.30;;;11.40;;
69334;SDS011;56477;52.742;15.242;2023-04-24T02:02:47;20.38;;;11.25;;
69334;SDS011;56477;52.742;15.242;2023-04-24T02:05:14;19.30;;;11.02;;
69334;SDS011;56477;52.742;15.242;2023-04-24T02:07:40;20.70;;;11.75;;
69334;SDS011;56477;52.742;15.242;2023-04-24T02:10:06;20.00;;;11.75;;
69334;SDS011;56477;52.742;15.242;2023-04-24T02:12:32;23.47;;;12.80;;
69334;SDS011;56477;52.742;15.242;2023-04-24T02:14:59;21.42;;;11.63;;
69334;SDS011;56477;52.742;15.242;2023-04-24T02:17:25;23.20;;;12.30;;
69334;SDS011;56477;52.742;15.242;2023-04-24T02:19:51;23.85;;;12.85;;
69334;SDS011;56477;52.742;15.242;2023-04-24T02:22:17;24.70;;;12.13;;
69334;SDS011;56477;52.742;15.242;2023-04-24T02:24:43;21.35;;;11.77;;
69334;SDS011;56477;52.742;15.242;2023-04-24T02:27:09;21.60;;;12.48;;
69334;SDS011;56477;52.742;15.242;2023-04-24T02:29:35;22.92;;;12.43;;
69334;SDS011;56477;52.742;15.242;2023-04-24T02:32:01;23.00;;;11.70;;
69334;SDS011;56477;52.742;15.242;2023-04-24T02:34:27;21.13;;;11.27;;
69334;SDS011;56477;52.742;15.242;2023-04-24T02:36:53;24.38;;;13.82;;
69334;SDS011;56477;52.742;15.242;2023-04-24T02:39:19;25.80;;;13.35;;
69334;SDS011;56477;52.742;15.242;2023-04-24T02:41:45;23.93;;;12.40;;
69334;SDS011;56477;52.742;15.242;2023-04-24T02:44:11;23.10;;;12.48;;
69334;SDS011;56477;52.742;15.242;2023-04-24T02:46:37;24.67;;;12.93;;
69334;SDS011;56477;52.742;15.242;2023-04-24T02:49:03;24.73;;;12.93;;
69334;SDS011;56477;52.742;15.242;2023-04-24T02:51:29;25.33;;;13.35;;
69334;SDS011;56477;52.742;15.242;2023-04-24T02:53:56;25.05;;;13.32;;
69334;SDS011;56477;52.742;15.242;2023-04-24T02:56:22;25.70;;;14.27;;
69334;SDS011;56477;52.742;15.242;2023-04-24T02:58:48;26.02;;;13.60;;
69334;SDS011;56477;52.742;15.242;2023-04-24T03:01:14;30.30;;;15.55;;
69334;SDS011;56477;52.742;15.242;2023-04-24T03:03:40;25.17;;;13.90;;
69334;SDS011;56477;52.742;15.242;2023-04-24T03:06:06;28.53;;;14.70;;
69334;SDS011;56477;52.742;15.242;2023-04-24T03:08:33;25.60;;;14.55;;
69334;SDS011;56477;52.742;15.242;2023-04-24T03:10:59;26.40;;;13.68;;
69334;SDS011;56477;52.742;15.242;2023-04-24T03:13:26;27.17;;;14.65;;
69334;SDS011;56477;52.742;15.242;2023-04-24T03:15:52;28.67;;;14.87;;
69334;SDS011;56477;52.742;15.242;2023-04-24T03:18:19;27.63;;;15.03;;
69334;SDS011;56477;52.742;15.242;2023-04-24T03:20:46;27.00;;;14.75;;
69334;SDS011;56477;52.742;15.242;2023-04-24T03:23:12;29.70;;;16.63;;
69334;SDS011;56477;52.742;15.242;2023-04-24T03:25:38;29.80;;;14.38;;
69334;SDS011;56477;52.742;15.242;2023-04-24T03:28:05;27.50;;;14.73;;
69334;SDS011;56477;52.742;15.242;2023-04-24T03:30:30;28.67;;;15.52;;
69334;SDS011;56477;52.742;15.242;2023-04-24T03:32:56;29.15;;;14.35;;
69334;SDS011;56477;52.742;15.242;2023-04-24T03:35:22;28.27;;;16.07;;
69334;SDS011;56477;52.742;15.242;2023-04-24T03:37:48;27.20;;;13.85;;
69334;SDS011;56477;52.742;15.242;2023-04-24T03:40:14;26.55;;;14.95;;
69334;SDS011;56477;52.742;15.242;2023-04-24T03:42:40;26.00;;;14.80;;
69334;SDS011;56477;52.742;15.242;2023-04-24T03:45:06;28.03;;;14.87;;
69334;SDS011;56477;52.742;15.242;2023-04-24T03:47:34;26.38;;;14.68;;
69334;SDS011;56477;52.742;15.242;2023-04-24T03:49:59;28.30;;;14.15;;
69334;SDS011;56477;52.742;15.242;2023-04-24T03:52:26;24.70;;;13.83;;
69334;SDS011;56477;52.742;15.242;2023-04-24T03:54:51;27.63;;;15.02;;
69334;SDS011;56477;52.742;15.242;2023-04-24T03:57:17;26.88;;;14.02;;
69334;SDS011;56477;52.742;15.242;2023-04-24T03:59:43;24.00;;;13.60;;
69334;SDS011;56477;52.742;15.242;2023-04-24T04:02:10;25.67;;;14.13;;
69334;SDS011;56477;52.742;15.242;2023-04-24T04:04:36;26.88;;;14.55;;
69334;SDS011;56477;52.742;15.242;2023-04-24T04:07:02;27.08;;;14.77;;
69334;SDS011;56477;52.742;15.242;2023-04-24T04:09:28;23.97;;;13.73;;
69334;SDS011;56477;52.742;15.242;2023-04-24T04:11:54;24.00;;;14.02;;
69334;SDS011;56477;52.742;15.242;2023-04-24T04:14:21;25.58;;;13.63;;
69334;SDS011;56477;52.742;15.242;2023-04-24T04:16:47;25.15;;;14.00;;
69334;SDS011;56477;52.742;15.242;2023-04-24T04:19:13;20.30;;;12.33;;
69334;SDS011;56477;52.742;15.242;2023-04-24T04:21:39;24.95;;;14.07;;
69334;SDS011;56477;52.742;15.242;2023-04-24T04:24:05;26.83;;;14.50;;
69334;SDS011;56477;52.742;15.242;2023-04-24T04:26:32;22.00;;;12.95;;
69334;SDS011;56477;52.742;15.242;2023-04-24T04:28:59;23.00;;;13.30;;
69334;SDS011;56477;52.742;15.242;2023-04-24T04:31:29;26.40;;;14.75;;
69334;SDS011;56477;52.742;15.242;2023-04-24T04:33:56;24.25;;;14.13;;
69334;SDS011;56477;52.742;15.242;2023-04-24T04:36:22;23.42;;;14.02;;
69334;SDS011;56477;52.742;15.242;2023-04-24T04:38:49;24.00;;;12.95;;
69334;SDS011;56477;52.742;15.242;2023-04-24T04:41:15;23.47;;;13.87;;
69334;SDS011;56477;52.742;15.242;2023-04-24T04:43:43;24.17;;;13.25;;
69334;SDS011;56477;52.742;15.242;2023-04-24T04:46:09;24.90;;;13.98;;
69334;SDS011;56477;52.742;15.242;2023-04-24T04:48:36;25.70;;;14.73;;
69334;SDS011;56477;52.742;15.242;2023-04-24T04:51:02;24.95;;;14.00;;
69334;SDS011;56477;52.742;15.242;2023-04-24T04:53:28;24.97;;;13.30;;
69334;SDS011;56477;52.742;15.242;2023-04-24T04:55:55;25.38;;;14.43;;
69334;SDS011;56477;52.742;15.242;2023-04-24T04:58:20;23.33;;;13.70;;
69334;SDS011;56477;52.742;15.242;2023-04-24T05:00:46;26.77;;;15.10;;
69334;SDS011;56477;52.742;15.242;2023-04-24T05:03:12;22.90;;;12.48;;
69334;SDS011;56477;52.742;15.242;2023-04-24T05:05:39;23.95;;;13.07;;
69334;SDS011;56477;52.742;15.242;2023-04-24T05:08:08;22.20;;;12.48;;
69334;SDS011;56477;52.742;15.242;2023-04-24T05:10:35;24.45;;;14.30;;
69334;SDS011;56477;52.742;15.242;2023-04-24T05:13:02;25.23;;;13.63;;
69334;SDS011;56477;52.742;15.242;2023-04-24T05:15:30;24.75;;;14.18;;
69334;SDS011;56477;52.742;15.242;2023-04-24T05:17:55;24.13;;;13.73;;
69334;SDS011;56477;52.742;15.242;2023-04-24T05:20:22;23.00;;;13.55;;
69334;SDS011;56477;52.742;15.242;2023-04-24T05:22:48;26.77;;;14.07;;
69334;SDS011;56477;52.742;15.242;2023-04-24T05:25:14;24.90;;;14.60;;
69334;SDS011;56477;52.742;15.242;2023-04-24T05:27:40;23.55;;;13.88;;
69334;SDS011;56477;52.742;15.242;2023-04-24T05:30:07;23.38;;;14.77;;
69334;SDS011;56477;52.742;15.242;2023-04-24T05:32:33;25.30;;;14.18;;
69334;SDS011;56477;52.742;15.242;2023-04-24T05:34:59;27.27;;;14.00;;
69334;SDS011;56477;52.742;15.242;2023-04-24T05:37:25;21.88;;;13.40;;
69334;SDS011;56477;52.742;15.242;2023-04-24T05:39:51;23.83;;;13.88;;
69334;SDS011;56477;52.742;15.242;2023-04-24T05:42:17;22.10;;;13.00;;
69334;SDS011;56477;52.742;15.242;2023-04-24T05:44:43;23.92;;;12.90;;
69334;SDS011;56477;52.742;15.242;2023-04-24T05:47:09;19.52;;;12.60;;
69334;SDS011;56477;52.742;15.242;2023-04-24T05:49:35;19.98;;;12.02;;
69334;SDS011;56477;52.742;15.242;2023-04-24T05:52:01;19.93;;;12.10;;
69334;SDS011;56477;52.742;15.242;2023-04-24T05:54:29;26.92;;;14.90;;
69334;SDS011;56477;52.742;15.242;2023-04-24T05:56:55;18.50;;;11.10;;
69334;SDS011;56477;52.742;15.242;2023-04-24T05:59:21;22.15;;;12.10;;
69334;SDS011;56477;52.742;15.242;2023-04-24T06:01:48;16.80;;;9.97;;
69334;SDS011;56477;52.742;15.242;2023-04-24T06:04:14;18.13;;;10.43;;
69334;SDS011;56477;52.742;15.242;2023-04-24T06:06:39;16.05;;;9.90;;
69334;SDS011;56477;52.742;15.242;2023-04-24T06:09:06;14.98;;;9.45;;
69334;SDS011;56477;52.742;15.242;2023-04-24T06:11:32;15.83;;;9.70;;
69334;SDS011;56477;52.742;15.242;2023-04-24T06:13:58;16.00;;;9.02;;
69334;SDS011;56477;52.742;15.242;2023-04-24T06:16:23;18.00;;;10.18;;
69334;SDS011;56477;52.742;15.242;2023-04-24T06:18:50;16.83;;;10.27;;
69334;SDS011;56477;52.742;15.242;2023-04-24T06:21:16;16.10;;;10.63;;
69334;SDS011;56477;52.742;15.242;2023-04-24T06:23:42;18.45;;;10.23;;
69334;SDS011;56477;52.742;15.242;2023-04-24T06:26:08;18.55;;;10.45;;
69334;SDS011;56477;52.742;15.242;2023-04-24T06:28:34;14.60;;;8.77;;
69334;SDS011;56477;52.742;15.242;2023-04-24T06:31:00;13.25;;;7.18;;
69334;SDS011;56477;52.742;15.242;2023-04-24T06:33:26;17.88;;;10.07;;
69334;SDS011;56477;52.742;15.242;2023-04-24T06:35:52;12.93;;;7.90;;
69334;SDS011;56477;52.742;15.242;2023-04-24T06:38:18;20.63;;;11.40;;
69334;SDS011;56477;52.742;15.242;2023-04-24T06:40:44;8.43;;;4.25;;
69334;SDS011;56477;52.742;15.242;2023-04-24T06:43:11;14.60;;;8.82;;
69334;SDS011;56477;52.742;15.242;2023-04-24T06:45:37;15.32;;;9.48;;
69334;SDS011;56477;52.742;15.242;2023-04-24T06:48:05;14.87;;;8.50;;
69334;SDS011;56477;52.742;15.242;2023-04-24T06:50:31;14.30;;;8.75;;
69334;SDS011;56477;52.742;15.242;2023-04-24T06:52:57;13.07;;;7.80;;
69334;SDS011;56477;52.742;15.242;2023-04-24T06:55:23;15.18;;;8.55;;
69334;SDS011;56477;52.742;15.242;2023-04-24T06:57:49;12.27;;;6.20;;
69334;SDS011;56477;52.742;15.242;2023-04-24T07:00:15;15.15;;;9.52;;
69334;SDS011;56477;52.742;15.242;2023-04-24T07:02:41;14.50;;;8.60;;
69334;SDS011;56477;52.742;15.242;2023-04-24T07:05:07;15.43;;;9.32;;
69334;SDS011;56477;52.742;15.242;2023-04-24T07:07:33;16.73;;;10.00;;
69334;SDS011;56477;52.742;15.242;2023-04-24T07:10:00;16.40;;;10.00;;
69334;SDS011;56477;52.742;15.242;2023-04-24T07:12:26;15.30;;;8.95;;
69334;SDS011;56477;52.742;15.242;2023-04-24T07:14:51;16.10;;;9.17;;
69334;SDS011;56477;52.742;15.242;2023-04-24T07:17:17;14.70;;;9.30;;
69334;SDS011;56477;52.742;15.242;2023-04-24T07:19:43;13.50;;;7.50;;
69334;SDS011;56477;52.742;15.242;2023-04-24T07:22:09;15.68;;;9.65;;
69334;SDS011;56477;52.742;15.242;2023-04-24T07:24:43;15.48;;;9.98;;
69334;SDS011;56477;52.742;15.242;2023-04-24T07:27:09;14.70;;;9.47;;
69334;SDS011;56477;52.742;15.242;2023-04-24T07:29:35;15.40;;;9.23;;
69334;SDS011;56477;52.742;15.242;2023-04-24T07:32:02;16.27;;;9.65;;
69334;SDS011;56477;52.742;15.242;2023-04-24T07:34:27;15.67;;;8.87;;
69334;SDS011;56477;52.742;15.242;2023-04-24T07:36:54;15.10;;;9.53;;
69334;SDS011;56477;52.742;15.242;2023-04-24T07:39:19;16.10;;;9.20;;
69334;SDS011;56477;52.742;15.242;2023-04-24T07:41:46;16.58;;;9.63;;
69334;SDS011;56477;52.742;15.242;2023-04-24T07:44:12;14.77;;;9.17;;
69334;SDS011;56477;52.742;15.242;2023-04-24T07:46:38;16.58;;;9.77;;
69334;SDS011;56477;52.742;15.242;2023-04-24T07:49:04;15.23;;;9.52;;
69334;SDS011;56477;52.742;15.242;2023-04-24T07:51:30;15.52;;;9.07;;
69334;SDS011;56477;52.742;15.242;2023-04-24T07:53:56;13.80;;;9.57;;
69334;SDS011;56477;52.742;15.242;2023-04-24T07:56:22;16.57;;;9.50;;
69334;SDS011;56477;52.742;15.242;2023-04-24T07:58:48;15.80;;;9.07;;
69334;SDS011;56477;52.742;15.242;2023-04-24T08:01:14;16.95;;;8.57;;
69334;SDS011;56477;52.742;15.242;2023-04-24T08:03:40;17.38;;;9.80;;
69334;SDS011;56477;52.742;15.242;2023-04-24T08:06:07;9.03;;;4.80;;
69334;SDS011;56477;52.742;15.242;2023-04-24T08:08:32;14.52;;;8.13;;
69334;SDS011;56477;52.742;15.242;2023-04-24T08:10:59;14.65;;;8.82;;
69334;SDS011;56477;52.742;15.242;2023-04-24T08:13:25;15.97;;;10.00;;
69334;SDS011;56477;52.742;15.242;2023-04-24T08:15:51;19.83;;;10.85;;
69334;SDS011;56477;52.742;15.242;2023-04-24T08:18:17;15.98;;;9.63;;
69334;SDS011;56477;52.742;15.242;2023-04-24T08:20:43;17.30;;;9.88;;
69334;SDS011;56477;52.742;15.242;2023-04-24T08:23:10;16.00;;;9.33;;
69334;SDS011;56477;52.742;15.242;2023-04-24T08:25:36;15.13;;;8.45;;
69334;SDS011;56477;52.742;15.242;2023-04-24T08:28:03;12.70;;;8.00;;
69334;SDS011;56477;52.742;15.242;2023-04-24T08:30:31;14.85;;;7.85;;
69334;SDS011;56477;52.742;15.242;2023-04-24T08:32:57;13.23;;;7.87;;
69334;SDS011;56477;52.742;15.242;2023-04-24T08:35:23;12.75;;;8.30;;
69334;SDS011;56477;52.742;15.242;2023-04-24T08:37:49;12.15;;;7.05;;
69334;SDS011;56477;52.742;15.242;2023-04-24T08:40:17;10.87;;;6.80;;
69334;SDS011;56477;52.742;15.242;2023-04-24T08:42:47;11.18;;;6.15;;
69334;SDS011;56477;52.742;15.242;2023-04-24T08:45:14;9.45;;;5.47;;
69334;SDS011;56477;52.742;15.242;2023-04-24T08:47:41;6.43;;;3.42;;
69334;SDS011;56477;52.742;15.242;2023-04-24T08:50:08;7.45;;;4.47;;
69334;SDS011;56477;52.742;15.242;2023-04-24T08:52:35;7.03;;;4.30;;
69334;SDS011;56477;52.742;15.242;2023-04-24T08:55:01;6.75;;;3.72;;
69334;SDS011;56477;52.742;15.242;2023-04-24T08:57:28;3.65;;;2.08;;
69334;SDS011;56477;52.742;15.242;2023-04-24T08:59:55;6.53;;;3.40;;
69334;SDS011;56477;52.742;15.242;2023-04-24T09:02:23;6.82;;;3.17;;
69334;SDS011;56477;52.742;15.242;2023-04-24T09:04:49;4.87;;;3.00;;
69334;SDS011;56477;52.742;15.242;2023-04-24T09:07:16;3.60;;;1.52;;
69334;SDS011;56477;52.742;15.242;2023-04-24T09:09:44;4.38;;;2.70;;
69334;SDS011;56477;52.742;15.242;2023-04-24T09:12:11;4.28;;;2.15;;
69334;SDS011;56477;52.742;15.242;2023-04-24T09:14:37;4.75;;;2.38;;
69334;SDS011;56477;52.742;15.242;2023-04-24T09:17:07;3.47;;;1.63;;
69334;SDS011;56477;52.742;15.242;2023-04-24T09:19:34;4.88;;;2.65;;
69334;SDS011;56477;52.742;15.242;2023-04-24T09:22:00;4.85;;;3.13;;
69334;SDS011;56477;52.742;15.242;2023-04-24T09:24:31;4.82;;;2.70;;
69334;SDS011;56477;52.742;15.242;2023-04-24T09:26:58;6.77;;;3.57;;
69334;SDS011;56477;52.742;15.242;2023-04-24T09:29:24;4.18;;;2.45;;
69334;SDS011;56477;52.742;15.242;2023-04-24T09:31:50;4.05;;;1.67;;
69334;SDS011;56477;52.742;15.242;2023-04-24T09:34:21;3.85;;;1.88;;
69334;SDS011;56477;52.742;15.242;2023-04-24T09:36:50;4.57;;;2.38;;
69334;SDS011;56477;52.742;15.242;2023-04-24T09:39:17;3.43;;;1.50;;
69334;SDS011;56477;52.742;15.242;2023-04-24T09:41:50;2.65;;;1.20;;
69334;SDS011;56477;52.742;15.242;2023-04-24T09:44:23;4.13;;;2.05;;
69334;SDS011;56477;52.742;15.242;2023-04-24T09:46:57;2.47;;;1.15;;
69334;SDS011;56477;52.742;15.242;2023-04-24T09:49:29;3.85;;;1.58;;
69334;SDS011;56477;52.742;15.242;2023-04-24T09:52:04;5.93;;;1.23;;
69334;SDS011;56477;52.742;15.242;2023-04-24T09:54:32;2.65;;;1.02;;
69334;SDS011;56477;52.742;15.242;2023-04-24T09:56:58;5.85;;;2.40;;
69334;SDS011;56477;52.742;15.242;2023-04-24T09:59:26;3.92;;;1.80;;
69334;SDS011;56477;52.742;15.242;2023-04-24T10:01:53;2.97;;;1.05;;
69334;SDS011;56477;52.742;15.242;2023-04-24T10:04:20;2.17;;;0.90;;
69334;SDS011;56477;52.742;15.242;2023-04-24T10:06:54;2.03;;;0.95;;
69334;SDS011;56477;52.742;15.242;2023-04-24T10:09:22;3.78;;;1.40;;
69334;SDS011;56477;52.742;15.242;2023-04-24T10:11:50;4.35;;;1.85;;
69334;SDS011;56477;52.742;15.242;2023-04-24T10:14:18;2.47;;;0.93;;
69334;SDS011;56477;52.742;15.242;2023-04-24T10:16:48;4.03;;;1.60;;
69334;SDS011;56477;52.742;15.242;2023-04-24T10:19:16;2.85;;;1.00;;
69334;SDS011;56477;52.742;15.242;2023-04-24T10:21:44;1.77;;;0.90;;
69334;SDS011;56477;52.742;15.242;2023-04-24T10:24:13;2.40;;;1.17;;
69334;SDS011;56477;52.742;15.242;2023-04-24T10:26:41;2.05;;;0.82;;
69334;SDS011;56477;52.742;15.242;2023-04-24T10:29:08;2.17;;;0.93;;
69334;SDS011;56477;52.742;15.242;2023-04-24T10:31:37;2.30;;;1.10;;
69334;SDS011;56477;52.742;15.242;2023-04-24T10:34:05;2.90;;;1.20;;
69334;SDS011;56477;52.742;15.242;2023-04-24T10:36:36;2.80;;;1.35;;
69334;SDS011;56477;52.742;15.242;2023-04-24T10:39:07;4.18;;;1.20;;
69334;SDS011;56477;52.742;15.242;2023-04-24T10:41:37;2.20;;;1.30;;
69334;SDS011;56477;52.742;15.242;2023-04-24T10:44:04;2.42;;;1.20;;
69334;SDS011;56477;52.742;15.242;2023-04-24T10:46:35;2.42;;;1.25;;
69334;SDS011;56477;52.742;15.242;2023-04-24T10:49:05;3.22;;;1.50;;
69334;SDS011;56477;52.742;15.242;2023-04-24T10:51:50;3.55;;;1.70;;
69334;SDS011;56477;52.742;15.242;2023-04-24T10:54:41;3.13;;;1.20;;
69334;SDS011;56477;52.742;15.242;2023-04-24T11:00:33;3.92;;;1.48;;
69334;SDS011;56477;52.742;15.242;2023-04-24T11:02:40;3.00;;;1.90;;
69334;SDS011;56477;52.742;15.242;2023-04-24T11:05:16;5.70;;;2.22;;
69334;SDS011;56477;52.742;15.242;2023-04-24T11:10:54;3.78;;;1.83;;
69334;SDS011;56477;52.742;15.242;2023-04-24T11:13:23;2.72;;;1.55;;
69334;SDS011;56477;52.742;15.242;2023-04-24T11:24:23;4.88;;;1.88;;
69334;SDS011;56477;52.742;15.242;2023-04-24T11:27:12;3.80;;;2.05;;
69334;SDS011;56477;52.742;15.242;2023-04-24T11:32:15;3.25;;;1.05;;
69334;SDS011;56477;52.742;15.242;2023-04-24T11:34:49;2.53;;;0.90;;
69334;SDS011;56477;52.742;15.242;2023-04-24T11:37:16;1.85;;;1.00;;
69334;SDS011;56477;52.742;15.242;2023-04-24T11:39:42;2.20;;;1.20;;
69334;SDS011;56477;52.742;15.242;2023-04-24T11:42:09;1.45;;;0.70;;
69334;SDS011;56477;52.742;15.242;2023-04-24T11:44:35;1.50;;;0.75;;
69334;SDS011;56477;52.742;15.242;2023-04-24T11:47:04;3.47;;;0.80;;
69334;SDS011;56477;52.742;15.242;2023-04-24T11:49:31;1.35;;;0.52;;
69334;SDS011;56477;52.742;15.242;2023-04-24T11:51:57;1.27;;;0.52;;
69334;SDS011;56477;52.742;15.242;2023-04-24T11:54:23;2.00;;;0.80;;
69334;SDS011;56477;52.742;15.242;2023-04-24T11:56:49;1.87;;;0.60;;
69334;SDS011;56477;52.742;15.242;2023-04-24T11:59:17;2.25;;;0.60;;
69334;SDS011;56477;52.742;15.242;2023-04-24T12:01:44;1.40;;;0.65;;
69334;SDS011;56477;52.742;15.242;2023-04-24T12:04:11;1.23;;;0.52;;
69334;SDS011;56477;52.742;15.242;2023-04-24T12:06:38;1.38;;;0.50;;
69334;SDS011;56477;52.742;15.242;2023-04-24T12:09:04;0.80;;;0.30;;
69334;SDS011;56477;52.742;15.242;2023-04-24T12:11:30;1.13;;;0.43;;
69334;SDS011;56477;52.742;15.242;2023-04-24T12:13:56;1.55;;;0.60;;
69334;SDS011;56477;52.742;15.242;2023-04-24T12:16:22;2.28;;;0.60;;
69334;SDS011;56477;52.742;15.242;2023-04-24T12:18:51;1.23;;;0.40;;
69334;SDS011;56477;52.742;15.242;2023-04-24T12:21:20;1.35;;;0.43;;
69334;SDS011;56477;52.742;15.242;2023-04-24T12:23:48;1.38;;;0.55;;
69334;SDS011;56477;52.742;15.242;2023-04-24T12:26:18;1.70;;;0.57;;
69334;SDS011;56477;52.742;15.242;2023-04-24T12:28:46;2.15;;;0.93;;
69334;SDS011;56477;52.742;15.242;2023-04-24T12:31:15;1.10;;;0.50;;
69334;SDS011;56477;52.742;15.242;2023-04-24T12:33:41;2.05;;;0.52;;
69334;SDS011;56477;52.742;15.242;2023-04-24T12:36:12;1.13;;;0.40;;
69334;SDS011;56477;52.742;15.242;2023-04-24T12:38:38;1.83;;;0.43;;
69334;SDS011;56477;52.742;15.242;2023-04-24T12:41:11;1.58;;;0.45;;
69334;SDS011;56477;52.742;15.242;2023-04-24T12:43:38;1.67;;;0.60;;
69334;SDS011;56477;52.742;15.242;2023-04-24T12:46:04;1.42;;;0.35;;
69334;SDS011;56477;52.742;15.242;2023-04-24T12:48:30;2.05;;;0.57;;
69334;SDS011;56477;52.742;15.242;2023-04-24T12:50:58;1.80;;;0.63;;
69334;SDS011;56477;52.742;15.242;2023-04-24T12:53:26;1.63;;;0.60;;
69334;SDS011;56477;52.742;15.242;2023-04-24T12:55:55;1.83;;;0.80;;
69334;SDS011;56477;52.742;15.242;2023-04-24T12:58:21;1.35;;;0.50;;
69334;SDS011;56477;52.742;15.242;2023-04-24T13:00:48;1.85;;;0.73;;
69334;SDS011;56477;52.742;15.242;2023-04-24T13:03:14;1.70;;;0.80;;
69334;SDS011;56477;52.742;15.242;2023-04-24T13:05:40;1.52;;;0.50;;
69334;SDS011;56477;52.742;15.242;2023-04-24T13:08:07;1.67;;;0.50;;
69334;SDS011;56477;52.742;15.242;2023-04-24T13:10:34;3.67;;;1.17;;
69334;SDS011;56477;52.742;15.242;2023-04-24T13:13:00;1.60;;;0.70;;
69334;SDS011;56477;52.742;15.242;2023-04-24T13:15:26;1.73;;;0.50;;
69334;SDS011;56477;52.742;15.242;2023-04-24T13:17:52;1.38;;;0.70;;
69334;SDS011;56477;52.742;15.242;2023-04-24T13:20:18;1.07;;;0.50;;
69334;SDS011;56477;52.742;15.242;2023-04-24T13:22:44;1.83;;;0.40;;
69334;SDS011;56477;52.742;15.242;2023-04-24T13:25:11;2.35;;;0.68;;
69334;SDS011;56477;52.742;15.242;2023-04-24T13:27:39;2.15;;;0.47;;
69334;SDS011;56477;52.742;15.242;2023-04-24T13:30:06;1.63;;;0.40;;
69334;SDS011;56477;52.742;15.242;2023-04-24T13:32:32;1.25;;;0.50;;
69334;SDS011;56477;52.742;15.242;2023-04-24T13:34:59;1.67;;;0.50;;
69334;SDS011;56477;52.742;15.242;2023-04-24T13:37:24;1.33;;;0.43;;
69334;SDS011;56477;52.742;15.242;2023-04-24T13:39:51;1.23;;;0.53;;
69334;SDS011;56477;52.742;15.242;2023-04-24T13:42:17;1.48;;;0.50;;
69334;SDS011;56477;52.742;15.242;2023-04-24T13:44:44;1.20;;;0.60;;
69334;SDS011;56477;52.742;15.242;2023-04-24T13:47:10;1.08;;;0.68;;
69334;SDS011;56477;52.742;15.242;2023-04-24T13:49:36;1.45;;;0.40;;
69334;SDS011;56477;52.742;15.242;2023-04-24T13:52:02;1.53;;;0.67;;
69334;SDS011;56477;52.742;15.242;2023-04-24T13:54:28;1.40;;;0.50;;
69334;SDS011;56477;52.742;15.242;2023-04-24T13:56:55;1.90;;;0.52;;
69334;SDS011;56477;52.742;15.242;2023-04-24T13:59:23;1.25;;;0.60;;
69334;SDS011;56477;52.742;15.242;2023-04-24T14:01:49;1.40;;;0.63;;
69334;SDS011;56477;52.742;15.242;2023-04-24T14:04:15;2.00;;;0.80;;
69334;SDS011;56477;52.742;15.242;2023-04-24T14:06:41;2.30;;;0.82;;
69334;SDS011;56477;52.742;15.242;2023-04-24T14:09:07;1.48;;;0.50;;
69334;SDS011;56477;52.742;15.242;2023-04-24T14:11:33;2.93;;;0.77;;
69334;SDS011;56477;52.742;15.242;2023-04-24T14:14:00;2.42;;;0.80;;
69334;SDS011;56477;52.742;15.242;2023-04-24T14:16:26;2.75;;;0.60;;
69334;SDS011;56477;52.742;15.242;2023-04-24T14:18:52;4.30;;;1.20;;
69334;SDS011;56477;52.742;15.242;2023-04-24T14:21:18;3.07;;;1.10;;
69334;SDS011;56477;52.742;15.242;2023-04-24T14:23:44;3.00;;;0.82;;
69334;SDS011;56477;52.742;15.242;2023-04-24T14:26:10;1.40;;;0.57;;
69334;SDS011;56477;52.742;15.242;2023-04-24T14:28:36;2.60;;;1.02;;
69334;SDS011;56477;52.742;15.242;2023-04-24T14:31:02;1.50;;;0.47;;
69334;SDS011;56477;52.742;15.242;2023-04-24T14:33:28;1.73;;;0.50;;
69334;SDS011;56477;52.742;15.242;2023-04-24T14:35:54;3.35;;;1.10;;
69334;SDS011;56477;52.742;15.242;2023-04-24T14:38:21;2.00;;;0.80;;